Time;durP1;ratioP1;P1;durP2;ratioP2;P2;SDS_P1;SDS_P2;PMS_P1;PMS_P2;Temp;Humidity;BMP_temperature;BMP_pressure;BME280_temperature;BME280_humidity;BME280_pressure;Samples;Min_cycle;Max_cycle;Signal;HPM_P1;HPM_P2
2023/03/24 00:01:15;;;;;;;;;;;12.90;99.90;;;;;;5024096;28;19962;-71
2023/03/24 00:03:44;;;;;;;;;;;12.90;99.90;;;;;;5024263;28;19922;-71
2023/03/24 00:06:12;;;;;;;;;;;12.90;99.90;;;;;;5024635;28;20151;-71
2023/03/24 00:08:40;;;;;;;;;;;12.80;99.90;;;;;;5024172;28;20266;-70
2023/03/24 00:11:08;;;;;;;;;;;12.80;99.90;;;;;;5024798;28;19921;-72
2023/03/24 00:13:37;;;;;;;;;;;12.80;99.90;;;;;;5025260;28;19921;-71
2023/03/24 00:16:04;;;;;;;;;;;12.70;99.90;;;;;;5022308;28;19921;-70
2023/03/24 00:18:32;;;;;;;;;;;12.80;99.90;;;;;;5024812;28;19928;-71
2023/03/24 00:20:59;;;;;;;;;;;12.80;99.90;;;;;;5024707;28;19921;-70
2023/03/24 00:23:26;;;;;;;;;;;12.80;99.90;;;;;;5024952;28;20108;-71
2023/03/24 00:26:01;;;;;;;;;;;12.70;99.90;;;;;;5024178;28;19928;-72
2023/03/24 00:28:28;;;;;;;;;;;12.70;99.90;;;;;;5024869;28;19929;-71
2023/03/24 00:30:55;;;;;;;;;;;12.70;99.90;;;;;;5024919;28;19933;-71
2023/03/24 00:33:22;;;;;;;;;;;12.70;99.90;;;;;;5024504;28;19928;-70
2023/03/24 00:35:51;;;;;;;;;;;12.60;99.90;;;;;;5024094;28;19922;-70
2023/03/24 00:38:18;;;;;;;;;;;12.60;99.90;;;;;;5024479;28;19948;-70
2023/03/24 00:40:45;;;;;;;;;;;12.60;99.90;;;;;;5024469;28;19953;-71
2023/03/24 00:43:12;;;;;;;;;;;12.60;99.90;;;;;;5024690;28;19936;-71
2023/03/24 00:45:45;;;;;;;;;;;12.60;99.90;;;;;;5023696;28;20202;-70
2023/03/24 00:48:11;;;;;;;;;;;12.50;99.90;;;;;;5023453;28;19932;-71
2023/03/24 00:50:38;;;;;;;;;;;12.40;99.90;;;;;;5024565;28;20117;-72
2023/03/24 00:53:07;;;;;;;;;;;12.50;99.90;;;;;;5024147;28;20220;-70
2023/03/24 00:55:36;;;;;;;;;;;12.40;99.90;;;;;;5024468;28;19967;-71
2023/03/24 00:58:03;;;;;;;;;;;12.40;99.90;;;;;;5023969;28;19976;-71
2023/03/24 01:00:31;;;;;;;;;;;12.30;99.90;;;;;;5024473;28;19928;-71
2023/03/24 01:02:58;;;;;;;;;;;12.30;99.90;;;;;;5024274;28;19988;-70
2023/03/24 01:05:26;;;;;;;;;;;12.20;99.90;;;;;;5023931;28;19921;-70
2023/03/24 01:07:55;;;;;;;;;;;12.30;99.90;;;;;;5020703;28;19922;-71
2023/03/24 01:10:25;;;;;;;;;;;12.30;99.90;;;;;;5024252;28;20132;-71
2023/03/24 01:12:52;;;;;;;;;;;12.30;99.90;;;;;;5024018;28;19953;-70
2023/03/24 01:15:20;;;;;;;;;;;12.30;99.90;;;;;;5023857;28;19921;-70
2023/03/24 01:17:48;;;;;;;;;;;12.30;99.90;;;;;;5023467;28;19921;-70
2023/03/24 01:20:15;;;;;;;;;;;12.30;99.90;;;;;;5024005;28;19979;-70
2023/03/24 01:22:43;;;;;;;;;;;12.30;99.90;;;;;;5023666;28;20209;-70
2023/03/24 01:25:12;;;;;;;;;;;12.20;99.90;;;;;;5023835;28;20130;-70
2023/03/24 01:27:40;;;;;;;;;;;12.20;99.90;;;;;;5023236;28;19956;-70
2023/03/24 01:30:08;;;;;;;;;;;12.10;99.90;;;;;;5024057;28;19921;-71
2023/03/24 01:32:34;;;;;;;;;;;12.10;99.90;;;;;;5023879;28;19921;-70
2023/03/24 01:35:01;;;;;;;;;;;12.00;99.90;;;;;;5023842;28;19921;-70
2023/03/24 01:37:28;;;;;;;;;;;12.00;99.90;;;;;;5022946;28;20325;-70
2023/03/24 01:39:54;;;;;;;;;;;12.00;99.90;;;;;;5023845;28;19925;-70
2023/03/24 01:42:22;;;;;;;;;;;11.90;99.90;;;;;;5023881;28;19930;-70
2023/03/24 01:44:51;;;;;;;;;;;11.90;99.90;;;;;;5023284;28;19921;-71
2023/03/24 01:47:18;;;;;;;;;;;11.90;99.90;;;;;;5023235;28;19960;-70
2023/03/24 01:49:46;;;;;;;;;;;11.90;99.90;;;;;;5023483;28;19921;-70
2023/03/24 01:52:15;;;;;;;;;;;11.90;99.90;;;;;;5023696;28;19930;-70
2023/03/24 01:54:44;;;;;;;;;;;12.00;99.90;;;;;;5023600;28;19921;-70
2023/03/24 01:57:12;;;;;;;;;;;11.90;99.90;;;;;;5022920;28;20008;-70
2023/03/24 01:59:40;;;;;;;;;;;11.90;99.90;;;;;;5027061;28;20330;-71
2023/03/24 02:02:12;;;;;;;;;;;11.90;99.90;;;;;;5027430;28;19922;-70
2023/03/24 02:04:41;;;;;;;;;;;11.90;99.90;;;;;;5027539;28;19949;-71
2023/03/24 02:07:10;;;;;;;;;;;11.90;99.90;;;;;;5026966;28;19922;-71
2023/03/24 02:09:37;;;;;;;;;;;11.90;99.90;;;;;;5027498;28;19925;-70
2023/03/24 02:12:04;;;;;;;;;;;11.90;99.90;;;;;;5027200;28;19988;-70
2023/03/24 02:14:30;;;;;;;;;;;11.90;99.90;;;;;;5027144;28;20229;-70
2023/03/24 02:17:05;;;;;;;;;;;11.90;99.90;;;;;;5026724;28;19949;-70
2023/03/24 02:19:57;;;;;;;;;;;11.90;99.90;;;;;;5027395;28;19921;-70
2023/03/24 02:22:38;;;;;;;;;;;11.80;99.90;;;;;;5027281;28;19921;-70
2023/03/24 02:25:17;;;;;;;;;;;11.80;99.90;;;;;;5013918;28;19932;-70
2023/03/24 02:27:54;;;;;;;;;;;11.80;99.90;;;;;;5026333;28;19928;-70
2023/03/24 02:30:31;;;;;;;;;;;11.80;99.90;;;;;;5027162;28;19922;-70
2023/03/24 02:33:19;;;;;;;;;;;11.80;99.90;;;;;;5027084;28;20209;-70
2023/03/24 02:36:10;;;;;;;;;;;11.90;99.90;;;;;;5021690;28;20140;-70
2023/03/24 02:38:49;;;;;;;;;;;11.90;99.90;;;;;;5026670;28;20203;-70
2023/03/24 02:41:21;;;;;;;;;;;11.80;99.90;;;;;;5026999;28;19944;-70
2023/03/24 02:43:52;;;;;;;;;;;11.80;99.90;;;;;;5026981;28;19928;-71
2023/03/24 02:46:22;;;;;;;;;;;11.80;99.90;;;;;;5026176;28;19922;-72
2023/03/24 02:48:56;;;;;;;;;;;11.80;99.90;;;;;;5026521;28;19968;-70
2023/03/24 02:51:25;;;;;;;;;;;11.80;99.90;;;;;;5026751;28;19926;-70
2023/03/24 02:53:55;;;;;;;;;;;11.80;99.90;;;;;;5026673;28;19921;-70
2023/03/24 02:56:26;;;;;;;;;;;11.80;99.90;;;;;;5025643;28;19921;-71
2023/03/24 02:58:56;;;;;;;;;;;11.80;99.90;;;;;;5026792;28;19968;-70
2023/03/24 03:01:31;;;;;;;;;;;11.80;99.90;;;;;;5026259;28;19925;-70
2023/03/24 03:03:59;;;;;;;;;;;11.90;99.90;;;;;;5026290;28;20216;-70
2023/03/24 03:06:27;;;;;;;;;;;11.90;99.90;;;;;;5025384;28;20228;-70
2023/03/24 03:08:55;;;;;;;;;;;11.90;99.90;;;;;;5026108;28;19922;-70
2023/03/24 03:11:21;;;;;;;;;;;11.90;99.90;;;;;;5025237;28;20208;-70
2023/03/24 03:13:52;;;;;;;;;;;11.90;99.90;;;;;;5026122;28;20109;-70
2023/03/24 03:16:21;;;;;;;;;;;11.90;99.90;;;;;;5026448;28;19928;-72
2023/03/24 03:18:50;;;;;;;;;;;11.90;99.90;;;;;;5025955;28;19964;-72
2023/03/24 03:21:19;;;;;;;;;;;11.90;99.90;;;;;;5026280;28;19928;-70
2023/03/24 03:23:47;;;;;;;;;;;12.00;99.90;;;;;;5025968;28;20209;-72
2023/03/24 03:26:17;;;;;;;;;;;12.00;99.90;;;;;;5025037;28;19928;-71
2023/03/24 03:28:48;;;;;;;;;;;12.10;99.90;;;;;;5026013;28;19922;-71
2023/03/24 03:31:20;;;;;;;;;;;12.10;99.90;;;;;;5026159;28;19940;-70
2023/03/24 03:33:50;;;;;;;;;;;12.10;99.90;;;;;;5026063;28;19928;-70
2023/03/24 03:36:18;;;;;;;;;;;12.10;99.90;;;;;;5025181;28;19922;-71
2023/03/24 03:38:47;;;;;;;;;;;12.10;99.90;;;;;;5025926;28;19922;-71
2023/03/24 03:41:17;;;;;;;;;;;12.10;99.90;;;;;;5025929;28;20121;-71
2023/03/24 03:43:44;;;;;;;;;;;12.10;99.90;;;;;;5025549;28;19929;-70
2023/03/24 03:46:11;;;;;;;;;;;12.10;99.90;;;;;;5025482;28;19922;-71
2023/03/24 03:48:40;;;;;;;;;;;12.10;99.90;;;;;;5024811;28;19960;-71
2023/03/24 03:51:07;;;;;;;;;;;12.00;99.90;;;;;;5026004;28;19928;-71
2023/03/24 03:53:38;;;;;;;;;;;12.10;99.90;;;;;;5025922;28;19960;-71
2023/03/24 03:56:06;;;;;;;;;;;12.10;99.90;;;;;;5025363;28;19930;-71
2023/03/24 03:58:33;;;;;;;;;;;12.10;99.90;;;;;;5025054;28;19959;-71
2023/03/24 04:01:00;;;;;;;;;;;12.10;99.90;;;;;;5025080;28;19928;-71
2023/03/24 04:03:35;;;;;;;;;;;12.10;99.90;;;;;;5025014;28;19921;-70
2023/03/24 04:06:07;;;;;;;;;;;12.10;99.90;;;;;;5024434;28;20240;-71
2023/03/24 04:08:40;;;;;;;;;;;12.10;99.90;;;;;;5025222;28;20014;-72
2023/03/24 04:11:21;;;;;;;;;;;12.10;99.90;;;;;;5024105;28;19960;-70
2023/03/24 04:13:53;;;;;;;;;;;12.10;99.90;;;;;;5025222;28;20121;-72
2023/03/24 04:16:22;;;;;;;;;;;12.10;99.90;;;;;;5024103;28;19922;-71
2023/03/24 04:18:57;;;;;;;;;;;12.10;99.90;;;;;;5025075;28;19921;-70
2023/03/24 04:21:41;;;;;;;;;;;12.10;99.90;;;;;;5024972;28;19929;-72
2023/03/24 04:24:25;;;;;;;;;;;12.10;99.90;;;;;;5025150;28;19928;-70
2023/03/24 04:26:54;;;;;;;;;;;12.10;99.90;;;;;;5024184;28;19922;-70
2023/03/24 04:29:25;;;;;;;;;;;12.10;99.90;;;;;;5024989;28;19922;-71
2023/03/24 04:31:53;;;;;;;;;;;12.10;99.90;;;;;;5025029;28;19992;-71
2023/03/24 04:34:21;;;;;;;;;;;12.10;99.90;;;;;;5024890;28;20113;-70
2023/03/24 04:36:53;;;;;;;;;;;12.10;99.90;;;;;;5023852;28;19922;-70
2023/03/24 04:39:24;;;;;;;;;;;12.10;99.90;;;;;;5024827;28;19928;-71
2023/03/24 04:41:51;;;;;;;;;;;12.20;99.90;;;;;;5024473;28;19922;-70
2023/03/24 04:44:20;;;;;;;;;;;12.20;99.90;;;;;;5024654;28;19926;-70
2023/03/24 04:46:47;;;;;;;;;;;12.20;99.90;;;;;;5032136;28;19951;-71
2023/03/24 04:49:14;;;;;;;;;;;12.20;99.90;;;;;;5044467;28;19993;-70
2023/03/24 04:51:41;;;;;;;;;;;12.20;99.90;;;;;;5044284;28;20094;-71
2023/03/24 04:54:10;;;;;;;;;;;12.20;99.90;;;;;;5044442;28;19952;-71
2023/03/24 04:56:39;;;;;;;;;;;12.20;99.90;;;;;;5040809;28;19935;-70
2023/03/24 04:59:07;;;;;;;;;;;12.20;99.90;;;;;;5024490;28;19922;-71
2023/03/24 05:01:36;;;;;;;;;;;12.20;99.90;;;;;;5024204;28;19967;-72
2023/03/24 05:04:03;;;;;;;;;;;12.30;99.90;;;;;;5024417;28;19921;-70
2023/03/24 05:06:30;;;;;;;;;;;12.30;99.90;;;;;;5023427;28;19988;-72
2023/03/24 05:08:57;;;;;;;;;;;12.30;99.90;;;;;;5024059;28;19985;-71
2023/03/24 05:11:26;;;;;;;;;;;12.30;99.90;;;;;;5024398;28;19956;-70
2023/03/24 05:13:52;;;;;;;;;;;12.40;99.90;;;;;;5024141;28;19922;-73
2023/03/24 05:16:19;;;;;;;;;;;12.30;99.90;;;;;;5003844;28;20025;-70
2023/03/24 05:18:46;;;;;;;;;;;12.30;99.90;;;;;;5004550;28;19950;-70
2023/03/24 05:21:13;;;;;;;;;;;12.30;99.90;;;;;;5004380;28;20174;-69
2023/03/24 05:23:39;;;;;;;;;;;12.30;99.90;;;;;;5004387;28;19976;-71
2023/03/24 05:26:06;;;;;;;;;;;12.30;99.90;;;;;;5003843;28;19968;-71
2023/03/24 05:28:34;;;;;;;;;;;12.30;99.90;;;;;;5004186;28;19989;-71
2023/03/24 05:31:01;;;;;;;;;;;12.30;99.90;;;;;;5004408;28;19929;-70
2023/03/24 05:33:27;;;;;;;;;;;12.30;99.90;;;;;;5003728;28;19922;-70
2023/03/24 05:35:54;;;;;;;;;;;12.30;99.90;;;;;;5004088;28;19921;-69
2023/03/24 05:38:21;;;;;;;;;;;12.30;99.90;;;;;;5004090;28;19988;-70
2023/03/24 05:40:47;;;;;;;;;;;12.30;99.90;;;;;;5004187;28;19984;-70
2023/03/24 05:43:14;;;;;;;;;;;12.20;99.90;;;;;;5004096;28;19922;-71
2023/03/24 05:45:42;;;;;;;;;;;12.30;99.90;;;;;;5018092;28;20284;-70
2023/03/24 05:48:09;;;;;;;;;;;12.30;99.90;;;;;;5022933;28;20227;-70
2023/03/24 05:50:35;;;;;;;;;;;12.40;99.90;;;;;;5023495;28;19960;-70
2023/03/24 05:53:02;;;;;;;;;;;12.30;99.90;;;;;;5023382;28;19953;-70
2023/03/24 05:55:29;;;;;;;;;;;12.40;99.90;;;;;;5023570;28;19949;-71
2023/03/24 05:57:56;;;;;;;;;;;12.40;99.90;;;;;;5023456;28;19937;-70
2023/03/24 06:00:23;;;;;;;;;;;12.40;99.90;;;;;;5023258;28;20281;-70
2023/03/24 06:02:51;;;;;;;;;;;12.30;99.90;;;;;;5023235;28;19922;-69
2023/03/24 06:05:19;;;;;;;;;;;12.30;99.90;;;;;;5023437;28;19992;-70
2023/03/24 06:07:45;;;;;;;;;;;12.40;99.90;;;;;;5022374;28;20225;-70
2023/03/24 06:10:13;;;;;;;;;;;12.30;99.90;;;;;;5042720;28;20082;-70
2023/03/24 06:12:39;;;;;;;;;;;12.40;99.90;;;;;;5042919;28;20156;-71
2023/03/24 06:15:07;;;;;;;;;;;12.30;99.90;;;;;;5043132;28;20176;-72
2023/03/24 06:17:33;;;;;;;;;;;12.30;99.90;;;;;;5042617;28;19927;-71
2023/03/24 06:20:04;;;;;;;;;;;12.30;99.90;;;;;;5043205;28;19921;-72
2023/03/24 06:22:32;;;;;;;;;;;12.30;99.90;;;;;;5042780;28;20238;-70
2023/03/24 06:24:58;;;;;;;;;;;12.30;99.90;;;;;;5042876;28;19959;-70
2023/03/24 06:27:28;;;;;;;;;;;12.20;99.90;;;;;;5042128;28;19996;-71
2023/03/24 06:29:55;;;;;;;;;;;12.20;99.90;;;;;;5042982;28;19976;-70
2023/03/24 06:32:22;;;;;;;;;;;12.20;99.90;;;;;;5037870;28;19973;-70
2023/03/24 06:34:49;;;;;;;;;;;12.20;99.90;;;;;;5021687;28;19984;-70
2023/03/24 06:37:17;;;;;;;;;;;12.20;99.90;;;;;;5022602;28;19952;-71
2023/03/24 06:39:43;;;;;;;;;;;12.10;99.90;;;;;;5023180;28;20112;-71
2023/03/24 06:42:10;;;;;;;;;;;12.10;99.90;;;;;;5022785;28;19948;-70
2023/03/24 06:44:36;;;;;;;;;;;12.10;99.90;;;;;;5023353;28;19964;-70
2023/03/24 06:47:03;;;;;;;;;;;12.10;99.90;;;;;;5026019;28;19928;-71
2023/03/24 06:49:30;;;;;;;;;;;12.20;99.90;;;;;;5034594;28;20303;-70
2023/03/24 06:51:56;;;;;;;;;;;12.20;99.90;;;;;;5026670;28;19998;-70
2023/03/24 06:54:24;;;;;;;;;;;12.20;99.90;;;;;;5026728;28;20000;-70
2023/03/24 06:56:51;;;;;;;;;;;12.20;99.90;;;;;;5025916;28;19922;-70
2023/03/24 06:59:22;;;;;;;;;;;12.20;99.90;;;;;;5026727;28;19921;-71
2023/03/24 07:01:49;;;;;;;;;;;12.20;99.90;;;;;;5026530;28;20193;-70
2023/03/24 07:04:16;;;;;;;;;;;12.20;99.90;;;;;;5026363;28;20204;-70
2023/03/24 07:06:42;;;;;;;;;;;12.30;99.90;;;;;;5025716;28;19921;-70
2023/03/24 07:09:14;;;;;;;;;;;12.20;99.90;;;;;;5023602;28;19985;-69
2023/03/24 07:11:42;;;;;;;;;;;12.30;99.90;;;;;;5026304;28;19980;-70
2023/03/24 07:14:08;;;;;;;;;;;12.20;99.90;;;;;;5026554;28;20134;-70
2023/03/24 07:16:35;;;;;;;;;;;12.20;99.90;;;;;;5017899;28;19996;-70
2023/03/24 07:19:02;;;;;;;;;;;12.20;99.90;;;;;;5023450;28;19921;-70
2023/03/24 07:21:29;;;;;;;;;;;12.20;99.90;;;;;;5025999;28;19922;-70
2023/03/24 07:23:55;;;;;;;;;;;12.10;99.90;;;;;;5025734;28;20224;-70
2023/03/24 07:26:22;;;;;;;;;;;12.10;99.90;;;;;;5025263;28;19953;-70
2023/03/24 07:28:50;;;;;;;;;;;12.10;99.90;;;;;;5026158;28;19993;-69
2023/03/24 07:31:17;;;;;;;;;;;12.20;99.90;;;;;;5024299;28;19997;-70
2023/03/24 07:33:43;;;;;;;;;;;12.20;99.90;;;;;;5025725;28;19921;-70
2023/03/24 07:36:10;;;;;;;;;;;12.10;99.90;;;;;;5025302;28;19964;-70
2023/03/24 07:38:37;;;;;;;;;;;12.20;99.90;;;;;;5025692;28;19921;-71
2023/03/24 07:41:03;;;;;;;;;;;12.20;99.90;;;;;;5025909;28;19993;-71
2023/03/24 07:43:30;;;;;;;;;;;12.20;99.90;;;;;;5025905;28;19953;-70
2023/03/24 07:45:59;;;;;;;;;;;12.20;99.90;;;;;;5022953;28;19956;-70
2023/03/24 07:48:26;;;;;;;;;;;12.40;99.90;;;;;;5025163;28;19921;-70
2023/03/24 07:50:52;;;;;;;;;;;12.40;99.90;;;;;;5025576;28;19988;-70
2023/03/24 07:53:19;;;;;;;;;;;12.40;99.90;;;;;;5025335;28;20040;-71
2023/03/24 07:55:46;;;;;;;;;;;12.40;99.90;;;;;;5024334;28;20240;-71
2023/03/24 07:58:13;;;;;;;;;;;12.40;99.90;;;;;;5025650;28;20113;-71
2023/03/24 08:00:40;;;;;;;;;;;12.40;99.90;;;;;;5025475;28;19988;-70
2023/03/24 08:03:12;;;;;;;;;;;12.50;99.90;;;;;;5025125;28;19922;-71
2023/03/24 08:05:40;;;;;;;;;;;12.50;99.90;;;;;;5025113;28;19921;-69
2023/03/24 08:08:06;;;;;;;;;;;12.50;99.90;;;;;;5025021;28;19928;-70
2023/03/24 08:10:33;;;;;;;;;;;12.40;99.90;;;;;;5025219;28;19921;-70
2023/03/24 08:13:00;;;;;;;;;;;12.40;99.90;;;;;;5025358;28;19952;-71
2023/03/24 08:15:27;;;;;;;;;;;12.50;99.90;;;;;;5025220;28;19929;-71
2023/03/24 08:17:55;;;;;;;;;;;12.50;99.90;;;;;;5024580;28;20175;-71
2023/03/24 08:20:24;;;;;;;;;;;12.50;99.90;;;;;;5025174;28;19921;-70
2023/03/24 08:22:52;;;;;;;;;;;12.40;99.90;;;;;;5023993;28;20119;-71
2023/03/24 08:25:20;;;;;;;;;;;12.50;99.90;;;;;;5024693;28;19921;-70
2023/03/24 08:27:47;;;;;;;;;;;12.50;99.90;;;;;;5023812;28;20358;-71
2023/03/24 08:30:15;;;;;;;;;;;12.50;99.90;;;;;;5024689;28;19928;-71
2023/03/24 08:32:43;;;;;;;;;;;12.50;99.90;;;;;;5025098;28;20156;-70
2023/03/24 08:35:13;;;;;;;;;;;12.50;99.90;;;;;;5023664;28;19988;-70
2023/03/24 08:37:42;;;;;;;;;;;12.50;99.90;;;;;;5035101;28;19952;-70
2023/03/24 08:40:12;;;;;;;;;;;12.50;99.90;;;;;;5044803;28;20103;-70
2023/03/24 08:42:38;;;;;;;;;;;12.50;99.90;;;;;;5044341;28;20208;-71
2023/03/24 08:45:05;;;;;;;;;;;12.40;99.90;;;;;;5044283;28;19987;-70
2023/03/24 08:47:32;;;;;;;;;;;12.40;99.90;;;;;;5044199;28;19992;-70
2023/03/24 08:49:59;;;;;;;;;;;12.40;99.90;;;;;;5044262;28;19992;-70
2023/03/24 08:52:25;;;;;;;;;;;12.30;99.90;;;;;;5044447;28;19921;-70
2023/03/24 08:54:53;;;;;;;;;;;12.30;99.90;;;;;;5044366;28;19943;-69
2023/03/24 08:57:21;;;;;;;;;;;12.20;99.90;;;;;;5026250;28;19921;-71
2023/03/24 08:59:47;;;;;;;;;;;12.20;99.90;;;;;;5024132;28;19921;-71
2023/03/24 09:02:14;;;;;;;;;;;12.10;99.90;;;;;;5024030;28;19921;-70
2023/03/24 09:04:41;;;;;;;;;;;12.10;99.90;;;;;;5024140;28;19952;-70
2023/03/24 09:07:09;;;;;;;;;;;12.00;99.90;;;;;;5023656;28;19922;-71
2023/03/24 09:09:35;;;;;;;;;;;12.00;99.90;;;;;;5023996;28;20120;-71
2023/03/24 09:12:03;;;;;;;;;;;12.00;99.90;;;;;;5023965;28;19967;-70
2023/03/24 09:14:31;;;;;;;;;;;12.00;99.90;;;;;;5022825;28;19921;-70
2023/03/24 09:16:58;;;;;;;;;;;12.00;99.90;;;;;;5023884;28;20069;-69
2023/03/24 09:19:24;;;;;;;;;;;12.00;99.90;;;;;;5024127;28;19948;-70
2023/03/24 09:21:51;;;;;;;;;;;12.00;99.90;;;;;;5023844;28;19952;-71
2023/03/24 09:24:18;;;;;;;;;;;12.00;99.90;;;;;;5024071;28;19953;-70
2023/03/24 09:26:44;;;;;;;;;;;12.00;99.90;;;;;;5023819;28;20173;-70
2023/03/24 09:29:12;;;;;;;;;;;12.00;99.90;;;;;;5023991;28;19927;-70
2023/03/24 09:31:39;;;;;;;;;;;12.10;99.90;;;;;;5023771;28;20177;-70
2023/03/24 09:34:06;;;;;;;;;;;12.10;99.90;;;;;;5023963;28;19956;-70
2023/03/24 09:36:32;;;;;;;;;;;12.20;99.90;;;;;;5023747;28;19989;-69
2023/03/24 09:38:59;;;;;;;;;;;12.20;99.90;;;;;;5024005;28;19922;-70
2023/03/24 09:41:27;;;;;;;;;;;12.30;99.90;;;;;;5024165;28;19928;-70
2023/03/24 09:43:56;;;;;;;;;;;12.30;99.90;;;;;;5023158;28;19953;-70
2023/03/24 09:46:27;;;;;;;;;;;12.40;99.90;;;;;;5023196;28;19921;-70
2023/03/24 09:48:55;;;;;;;;;;;12.50;99.90;;;;;;5023224;28;20280;-70
2023/03/24 09:51:23;;;;;;;;;;;12.50;99.90;;;;;;5023639;28;19988;-71
2023/03/24 09:53:52;;;;;;;;;;;12.60;99.90;;;;;;5023712;28;19960;-71
2023/03/24 09:56:21;;;;;;;;;;;12.60;99.90;;;;;;5024873;28;20251;-70
2023/03/24 09:58:49;;;;;;;;;;;12.60;99.90;;;;;;5022328;28;19988;-70
2023/03/24 10:01:16;;;;;;;;;;;12.70;99.90;;;;;;5023295;28;19993;-71
2023/03/24 10:03:45;;;;;;;;;;;12.70;99.90;;;;;;5024305;28;19988;-70
2023/03/24 10:06:17;;;;;;;;;;;12.80;99.90;;;;;;5026664;28;19988;-70
2023/03/24 10:08:45;;;;;;;;;;;12.80;99.90;;;;;;5023409;28;19922;-71
2023/03/24 10:11:19;;;;;;;;;;;12.90;99.90;;;;;;5023634;28;19928;-70
2023/03/24 10:13:52;;;;;;;;;;;12.90;99.90;;;;;;5023448;28;19925;-70
2023/03/24 10:16:21;;;;;;;;;;;12.90;99.90;;;;;;5023403;28;20115;-70
2023/03/24 10:18:52;;;;;;;;;;;12.90;99.90;;;;;;5003566;28;19921;-70
2023/03/24 10:21:20;;;;;;;;;;;12.90;99.90;;;;;;5007768;28;19921;-70
2023/03/24 10:23:51;;;;;;;;;;;12.90;99.90;;;;;;5007525;28;19922;-70
2023/03/24 10:26:25;;;;;;;;;;;12.90;99.90;;;;;;5007487;28;19953;-71
2023/03/24 10:28:58;;;;;;;;;;;12.90;99.90;;;;;;5007174;28;20204;-70
2023/03/24 10:31:27;;;;;;;;;;;13.00;99.90;;;;;;5007574;28;20112;-70
2023/03/24 10:33:56;;;;;;;;;;;13.00;99.90;;;;;;5007619;28;20141;-69
2023/03/24 10:36:23;;;;;;;;;;;13.00;99.90;;;;;;5006869;28;19960;-69
2023/03/24 10:38:50;;;;;;;;;;;13.00;99.90;;;;;;5007251;28;20098;-69
2023/03/24 10:41:18;;;;;;;;;;;13.00;99.90;;;;;;5014677;28;19992;-70
2023/03/24 10:43:45;;;;;;;;;;;13.10;99.90;;;;;;5026762;28;19928;-69
2023/03/24 10:46:14;;;;;;;;;;;13.20;99.90;;;;;;5026633;28;19998;-69
2023/03/24 10:48:43;;;;;;;;;;;13.20;99.90;;;;;;5026280;28;19972;-69
2023/03/24 10:51:15;;;;;;;;;;;13.20;99.90;;;;;;5026758;28;19921;-69
2023/03/24 10:53:41;;;;;;;;;;;13.30;99.90;;;;;;5026702;28;19929;-69
2023/03/24 10:56:09;;;;;;;;;;;13.30;99.90;;;;;;5037523;28;19983;-69
2023/03/24 10:58:37;;;;;;;;;;;13.40;99.90;;;;;;5046638;28;19956;-69
2023/03/24 11:01:07;;;;;;;;;;;13.40;99.90;;;;;;5044822;28;19927;-70
2023/03/24 11:03:36;;;;;;;;;;;13.50;99.90;;;;;;5046166;28;19927;-69
2023/03/24 11:06:04;;;;;;;;;;;13.50;99.90;;;;;;5006847;28;20095;-70
2023/03/24 11:08:37;;;;;;;;;;;13.60;99.90;;;;;;5006791;28;20008;-69
2023/03/24 11:11:13;;;;;;;;;;;13.70;99.90;;;;;;5006622;28;19928;-69
2023/03/24 11:13:39;;;;;;;;;;;13.80;99.90;;;;;;5006877;28;19922;-69
2023/03/24 11:16:10;;;;;;;;;;;13.90;99.90;;;;;;5009648;28;19922;-67
2023/03/24 11:18:37;;;;;;;;;;;14.10;99.90;;;;;;5024953;28;19943;-69
2023/03/24 11:21:05;;;;;;;;;;;14.10;99.90;;;;;;5024412;28;19988;-69
2023/03/24 11:23:32;;;;;;;;;;;14.20;99.90;;;;;;5025156;28;19921;-69
2023/03/24 11:26:09;;;;;;;;;;;14.40;99.90;;;;;;5025379;28;19921;-68
2023/03/24 11:28:37;;;;;;;;;;;14.60;99.90;;;;;;5025887;28;19922;-69
2023/03/24 11:31:07;;;;;;;;;;;14.80;99.90;;;;;;5024454;28;19921;-69
2023/03/24 11:33:35;;;;;;;;;;;14.90;99.90;;;;;;5025745;28;19925;-69
2023/03/24 11:36:02;;;;;;;;;;;14.90;99.90;;;;;;5025727;28;20117;-69
2023/03/24 11:38:30;;;;;;;;;;;14.90;99.90;;;;;;5025525;28;19952;-69
2023/03/24 11:40:58;;;;;;;;;;;14.90;99.90;;;;;;5025464;28;19953;-68
2023/03/24 11:43:27;;;;;;;;;;;15.10;99.90;;;;;;5025330;28;19921;-70
2023/03/24 11:45:56;;;;;;;;;;;15.20;99.90;;;;;;5025461;28;19926;-69
2023/03/24 11:48:26;;;;;;;;;;;15.30;99.90;;;;;;5025444;28;19993;-70
2023/03/24 11:50:53;;;;;;;;;;;15.20;99.90;;;;;;5025648;28;19953;-69
2023/03/24 11:53:22;;;;;;;;;;;15.30;99.90;;;;;;5025271;28;19992;-71
2023/03/24 11:55:52;;;;;;;;;;;15.30;99.90;;;;;;5025245;28;19993;-69
2023/03/24 11:58:26;;;;;;;;;;;15.20;99.90;;;;;;5024510;28;19996;-69
2023/03/24 12:00:57;;;;;;;;;;;15.20;99.90;;;;;;5040803;28;20039;-70
2023/03/24 12:03:42;;;;;;;;;;;15.10;99.90;;;;;;5015824;28;19921;-71
2023/03/24 12:06:15;;;;;;;;;;;15.10;99.90;;;;;;5022328;28;19927;-70
2023/03/24 12:08:49;;;;;;;;;;;15.10;99.90;;;;;;5022830;28;19989;-70
2023/03/24 12:11:17;;;;;;;;;;;15.00;99.90;;;;;;5024580;28;19925;-70
2023/03/24 12:13:47;;;;;;;;;;;15.00;99.90;;;;;;5024653;28;19922;-70
2023/03/24 12:16:32;;;;;;;;;;;15.10;99.90;;;;;;5024624;28;19996;-70
2023/03/24 12:19:10;;;;;;;;;;;15.20;99.90;;;;;;4998015;28;19981;-70
2023/03/24 12:21:41;;;;;;;;;;;15.30;99.90;;;;;;5004500;28;20139;-69
2023/03/24 12:24:13;;;;;;;;;;;15.40;99.90;;;;;;5018438;28;19952;-69
2023/03/24 12:26:41;;;;;;;;;;;15.60;99.90;;;;;;5024610;28;19927;-70
2023/03/24 12:29:23;;;;;;;;;;;15.70;99.90;;;;;;5024365;28;19927;-69
2023/03/24 12:31:58;;;;;;;;;;;15.80;99.90;;;;;;5023148;28;19925;-70
2023/03/24 12:34:38;;;;;;;;;;;15.80;99.90;;;;;;5024524;28;20177;-69
2023/03/24 12:37:08;;;;;;;;;;;15.90;99.90;;;;;;5016341;28;19921;-70
2023/03/24 12:39:39;;;;;;;;;;;16.00;99.90;;;;;;5024866;28;20101;-69
2023/03/24 12:42:09;;;;;;;;;;;16.10;99.90;;;;;;5023103;28;19922;-70
2023/03/24 12:44:41;;;;;;;;;;;16.20;99.90;;;;;;5024017;28;19921;-70
2023/03/24 12:47:15;;;;;;;;;;;16.30;99.90;;;;;;5024186;28;19928;-70
2023/03/24 12:50:01;;;;;;;;;;;16.20;99.90;;;;;;5024211;28;19922;-69
2023/03/24 12:52:42;;;;;;;;;;;16.10;99.90;;;;;;5022884;28;19956;-70
2023/03/24 12:55:13;;;;;;;;;;;16.00;99.90;;;;;;5023691;28;19996;-71
2023/03/24 12:57:42;;;;;;;;;;;15.90;99.90;;;;;;5023656;28;19922;-69
2023/03/24 13:00:12;;;;;;;;;;;15.80;99.90;;;;;;5024126;28;20259;-70
2023/03/24 13:02:41;;;;;;;;;;;15.70;99.90;;;;;;5024115;28;20197;-71
2023/03/24 13:05:15;;;;;;;;;;;15.60;99.90;;;;;;5024136;28;19985;-70
2023/03/24 13:07:46;;;;;;;;;;;15.60;99.90;;;;;;5023431;28;19922;-70
2023/03/24 13:10:14;;;;;;;;;;;15.60;99.90;;;;;;5023801;28;19928;-70
2023/03/24 13:12:42;;;;;;;;;;;15.60;99.90;;;;;;5024098;28;19984;-69
2023/03/24 13:15:15;;;;;;;;;;;15.60;99.90;;;;;;5023909;28;19921;-70
2023/03/24 13:17:45;;;;;;;;;;;15.60;99.90;;;;;;5023290;28;19992;-69
2023/03/24 13:20:14;;;;;;;;;;;15.50;99.90;;;;;;5024150;28;19921;-71
2023/03/24 13:22:41;;;;;;;;;;;15.40;99.90;;;;;;5023101;28;19921;-69
2023/03/24 13:25:13;;;;;;;;;;;15.40;99.90;;;;;;5023426;28;19928;-70
2023/03/24 13:27:41;;;;;;;;;;;15.40;99.90;;;;;;5023226;28;19944;-68
2023/03/24 13:30:14;;;;;;;;;;;15.30;99.90;;;;;;5023924;28;19928;-69
2023/03/24 13:32:44;;;;;;;;;;;15.30;99.90;;;;;;5023438;28;19985;-69
2023/03/24 13:35:16;;;;;;;;;;;15.10;99.90;;;;;;5023790;28;19927;-69
2023/03/24 13:37:47;;;;;;;;;;;15.10;99.90;;;;;;5015586;28;20072;-69
2023/03/24 13:40:19;;;;;;;;;;;14.80;99.90;;;;;;5023862;28;19957;-69
2023/03/24 13:42:48;;;;;;;;;;;14.40;99.90;;;;;;5023764;28;19968;-69
2023/03/24 13:45:22;;;;;;;;;;;14.20;99.90;;;;;;5023597;28;19960;-69
2023/03/24 13:47:50;;;;;;;;;;;14.00;99.90;;;;;;5023226;28;19921;-69
2023/03/24 13:50:18;;;;;;;;;;;13.90;99.90;;;;;;5022234;28;20012;-70
2023/03/24 13:52:46;;;;;;;;;;;13.90;99.90;;;;;;5021978;28;19957;-70
2023/03/24 13:55:15;;;;;;;;;;;13.70;99.90;;;;;;5023203;28;19928;-69
2023/03/24 13:57:41;;;;;;;;;;;13.70;99.90;;;;;;5022539;28;20144;-69
2023/03/24 14:00:19;;;;;;;;;;;13.70;99.90;;;;;;5023581;28;19921;-69
2023/03/24 14:02:48;;;;;;;;;;;13.60;99.90;;;;;;5022152;28;19921;-69
2023/03/24 14:05:33;;;;;;;;;;;13.20;99.90;;;;;;5023216;28;20212;-69
2023/03/24 14:08:14;;;;;;;;;;;12.70;99.90;;;;;;5015996;28;20145;-69
2023/03/24 14:10:42;;;;;;;;;;;12.40;99.90;;;;;;5006322;28;19989;-69
2023/03/24 14:13:22;;;;;;;;;;;12.30;99.90;;;;;;5023148;28;19984;-69
2023/03/24 14:15:50;;;;;;;;;;;12.30;99.90;;;;;;5023269;28;19921;-69
2023/03/24 14:18:33;;;;;;;;;;;12.20;99.90;;;;;;5022006;28;19921;-69
2023/03/24 14:21:02;;;;;;;;;;;12.10;99.90;;;;;;5020791;28;19989;-69
2023/03/24 14:23:34;;;;;;;;;;;12.10;99.90;;;;;;5022615;28;19921;-69
2023/03/24 14:26:00;;;;;;;;;;;12.00;99.90;;;;;;5023292;28;19921;-70
2023/03/24 14:28:29;;;;;;;;;;;12.00;99.90;;;;;;5022505;28;20121;-70